Time;durP1;ratioP1;P1;durP2;ratioP2;P2;SDS_P1;SDS_P2;PMS_P1;PMS_P2;Temp;Humidity;BMP_temperature;BMP_pressure;BME280_temperature;BME280_humidity;BME280_pressure;Samples;Min_cycle;Max_cycle;Signal;HPM_P1;HPM_P2
2021/07/04 00:00:34;;;;;;;;;9.00;8.25;;;;;20.57;72.00;100918.69;6308648;22;45270;-95
2021/07/04 00:03:02;;;;;;;;;9.00;7.50;;;;;20.72;71.95;100952.53;6308023;22;45386;-96
2021/07/04 00:05:37;;;;;;;;;6.75;5.75;;;;;20.28;71.96;100871.66;6308411;22;47137;-96
2021/07/04 00:08:05;;;;;;;;;9.00;9.00;;;;;20.29;71.98;100870.63;6310768;22;45446;-96
2021/07/04 00:10:34;;;;;;;;;7.75;7.75;;;;;20.24;72.33;100862.06;6312445;22;45317;-95
2021/07/04 00:13:00;;;;;;;;;10.75;9.50;;;;;20.53;72.19;100917.31;6338152;22;45356;-96
2021/07/04 00:15:39;;;;;;;;;9.00;9.00;;;;;20.39;72.50;100908.69;6314201;22;47141;-95
2021/07/04 00:18:06;;;;;;;;;8.00;7.00;;;;;20.13;72.42;100867.78;6320392;22;44770;-95
2021/07/04 00:20:36;;;;;;;;;10.75;9.50;;;;;20.12;72.25;100866.94;6322059;22;45202;-95
2021/07/04 00:23:02;;;;;;;;;11.00;11.00;;;;;20.11;72.65;100854.31;6356655;22;45242;-94
2021/07/04 00:25:29;;;;;;;;;8.50;8.00;;;;;20.09;72.63;100856.38;6334817;22;46880;-95
2021/07/04 00:27:57;;;;;;;;;10.75;8.25;;;;;20.36;72.80;100891.78;6334793;22;44764;-96
2021/07/04 00:30:25;;;;;;;;;5.75;5.25;;;;;20.29;72.58;100889.72;6320998;22;45302;-96
2021/07/04 00:32:52;;;;;;;;;9.00;7.00;;;;;20.06;72.67;100845.78;6318886;22;44799;-96
2021/07/04 00:35:22;;;;;;;;;7.25;7.25;;;;;20.58;72.80;100928.56;6317673;22;47161;-95
2021/07/04 00:37:49;;;;;;;;;8.25;7.25;;;;;20.55;72.70;100907.06;6357870;22;44891;-95
2021/07/04 00:40:19;;;;;;;;;10.00;7.00;;;;;20.48;72.69;100906.88;6333957;22;44828;-95
2021/07/04 00:42:45;;;;;;;;;11.75;9.25;;;;;20.10;73.02;100838.97;6327040;22;45216;-95
2021/07/04 00:45:25;;;;;;;;;8.75;6.75;;;;;20.07;72.79;100825.69;6315730;22;47985;-96
2021/07/04 00:47:52;;;;;;;;;7.50;7.00;;;;;20.02;72.66;100816.28;6342290;22;45520;-95
2021/07/04 00:50:21;;;;;;;;;6.50;5.00;;;;;20.04;72.99;100836.91;6316601;22;45214;-95
2021/07/04 00:52:51;;;;;;;;;11.50;7.00;;;;;19.95;73.18;100833.25;6316123;22;45294;-96
2021/07/04 00:55:20;;;;;;;;;8.50;7.00;;;;;19.89;72.90;100833.03;6316788;22;47102;-95
2021/07/04 00:57:46;;;;;;;;;8.50;7.25;;;;;20.22;73.19;100891.34;6315265;22;45220;-96
2021/07/04 01:00:18;;;;;;;;;10.00;8.25;;;;;19.82;73.17;100830.91;6315284;22;45179;-96
2021/07/04 01:02:47;;;;;;;;;9.00;9.00;;;;;19.84;73.41;100828.03;6314619;22;45124;-95
2021/07/04 01:05:21;;;;;;;;;8.25;8.25;;;;;19.96;73.09;100855.91;6314151;22;47117;-96
2021/07/04 01:07:48;;;;;;;;;8.00;8.00;;;;;20.34;73.08;100919.22;6315027;22;45110;-96
2021/07/04 01:10:20;;;;;;;;;8.25;8.25;;;;;20.09;72.89;100880.91;6312445;22;45322;-95
2021/07/04 01:12:48;;;;;;;;;11.25;8.00;;;;;20.07;73.08;100888.38;6312225;22;44885;-96
2021/07/04 01:15:28;;;;;;;;;9.75;8.00;;;;;20.01;73.08;100879.97;6311490;22;46871;-94
2021/07/04 01:17:56;;;;;;;;;8.25;8.25;;;;;20.14;72.96;100919.41;6312281;22;45457;-95
2021/07/04 01:20:23;;;;;;;;;7.00;7.00;;;;;19.97;73.04;100891.19;6311994;22;45458;-96
2021/07/04 01:23:13;;;;;;;;;8.00;8.00;;;;;19.43;72.85;100814.94;6312345;22;45477;-96
2021/07/04 01:25:57;;;;;;;;;8.00;8.00;;;;;19.79;73.14;100883.00;6313212;22;46899;-96
2021/07/04 01:28:23;;;;;;;;;7.00;7.00;;;;;19.32;73.47;100804.28;6337368;22;45205;-95
2021/07/04 01:30:54;;;;;;;;;7.25;6.75;;;;;19.71;73.45;100877.47;6344382;22;45170;-96
2021/07/04 01:33:20;;;;;;;;;7.50;6.00;;;;;19.91;73.55;100921.78;6318329;22;44868;-95
2021/07/04 01:35:51;;;;;;;;;5.25;5.25;;;;;19.24;73.35;100815.94;6344030;22;46985;-96
2021/07/04 01:38:19;;;;;;;;;8.25;8.25;;;;;19.74;73.08;100893.50;6319683;22;45770;-94
2021/07/04 01:40:49;;;;;;;;;7.25;5.75;;;;;19.31;73.11;100827.06;6317704;22;44736;-96
2021/07/04 01:43:15;;;;;;;;;7.50;6.00;;;;;19.36;73.40;100825.59;6319293;22;44705;-96
2021/07/04 01:45:41;;;;;;;;;6.25;5.00;;;;;19.29;72.94;100805.47;6344231;22;46644;-95
2021/07/04 01:48:08;;;;;;;;;6.75;6.75;;;;;19.71;72.67;100863.84;6318439;22;44771;-96
2021/07/04 01:50:38;;;;;;;;;6.00;6.00;;;;;19.36;72.96;100816.56;6344684;22;45324;-96
2021/07/04 01:53:07;;;;;;;;;7.50;7.50;;;;;19.33;72.92;100811.44;6317595;22;45349;-96
2021/07/04 01:55:33;;;;;;;;;6.00;6.00;;;;;19.37;72.97;100815.56;6316924;22;46522;-95
2021/07/04 01:58:01;;;;;;;;;6.25;6.25;;;;;19.35;72.51;100802.09;6341107;22;45699;-95
2021/07/04 02:00:30;;;;;;;;;7.75;6.50;;;;;19.34;72.62;100807.72;6316582;22;45388;-96
2021/07/04 02:03:03;;;;;;;;;6.00;6.00;;;;;19.27;72.91;100804.75;6344658;22;45203;-96
2021/07/04 02:05:29;;;;;;;;;8.75;7.00;;;;;19.16;72.84;100794.09;6315836;22;48062;-95
2021/07/04 02:07:55;;;;;;;;;7.00;7.00;;;;;19.62;72.92;100875.69;6315175;22;45472;-95
2021/07/04 02:10:26;;;;;;;;;8.25;8.00;;;;;19.14;72.98;100807.00;6316558;22;45383;-96
2021/07/04 02:12:55;;;;;;;;;5.50;5.50;;;;;19.32;73.58;100837.78;6317216;22;44804;-95
2021/07/04 02:15:41;;;;;;;;;5.75;5.50;;;;;19.12;73.42;100798.13;6317518;22;46586;-96
2021/07/04 02:18:15;;;;;;;;;5.75;5.75;;;;;19.70;73.12;100897.56;6316077;22;45039;-95
2021/07/04 02:20:51;;;;;;;;;6.00;6.00;;;;;19.44;72.90;100857.47;6314966;22;44697;-95
2021/07/04 02:23:29;;;;;;;;;5.00;5.00;;;;;19.41;72.97;100868.69;6314792;22;45128;-96
2021/07/04 02:25:57;;;;;;;;;10.00;6.00;;;;;18.95;73.31;100797.97;6315384;22;46563;-95
2021/07/04 02:28:32;;;;;;;;;5.00;5.00;;;;;18.89;73.16;100783.06;6317613;22;45248;-95
2021/07/04 02:30:59;;;;;;;;;7.50;5.50;;;;;19.02;73.28;100809.09;6319175;22;45151;-96
2021/07/04 02:33:27;;;;;;;;;6.00;6.00;;;;;18.99;73.52;100806.66;6318311;22;45177;-96
2021/07/04 02:35:56;;;;;;;;;5.50;5.50;;;;;19.22;73.73;100835.16;6317390;22;47011;-96
2021/07/04 02:38:26;;;;;;;;;7.50;6.25;;;;;18.94;73.19;100790.81;6316749;22;45235;-95
2021/07/04 02:40:53;;;;;;;;;5.00;5.00;;;;;19.43;73.78;100863.94;6316479;22;44595;-95
2021/07/04 02:43:23;;;;;;;;;6.25;5.50;;;;;19.34;73.82;100857.53;6318088;22;45558;-95
2021/07/04 02:45:53;;;;;;;;;7.00;5.00;;;;;19.03;73.24;100799.91;6312446;22;46578;-96
2021/07/04 02:48:21;;;;;;;;;3.25;3.00;;;;;19.35;73.62;100852.97;6316436;22;45270;-94
2021/07/04 02:50:47;;;;;;;;;7.25;6.00;;;;;19.00;73.58;100800.22;6316782;22;44747;-96
2021/07/04 02:53:14;;;;;;;;;7.00;6.00;;;;;19.07;73.56;100820.38;6315417;22;44784;-95
2021/07/04 02:55:44;;;;;;;;;10.00;6.00;;;;;19.58;73.96;100885.19;6316464;22;46872;-96
2021/07/04 02:58:10;;;;;;;;;5.50;5.50;;;;;18.99;73.51;100780.31;6313668;22;45096;-96
2021/07/04 03:00:39;;;;;;;;;5.25;5.25;;;;;19.03;73.34;100798.03;6341309;22;45255;-95
2021/07/04 03:03:05;;;;;;;;;7.75;6.25;;;;;18.98;73.29;100785.91;6340765;22;45186;-95
2021/07/04 03:05:31;;;;;;;;;7.00;7.00;;;;;18.93;73.68;100783.63;6341157;22;46987;-95
2021/07/04 03:07:56;;;;;;;;;6.00;6.00;;;;;19.17;73.66;100821.16;6312992;22;45450;-95
2021/07/04 03:10:23;;;;;;;;;9.00;7.25;;;;;18.87;73.72;100778.81;6316841;22;44610;-96
2021/07/04 03:12:49;;;;;;;;;6.50;6.00;;;;;19.17;73.52;100815.72;6319030;22;44845;-95
2021/07/04 03:15:18;;;;;;;;;6.25;6.25;;;;;18.93;73.62;100772.72;6317771;22;48072;-95
2021/07/04 03:17:47;;;;;;;;;6.00;5.00;;;;;18.92;74.13;100769.16;6317678;22;44792;-94
2021/07/04 03:20:15;;;;;;;;;7.50;7.50;;;;;19.01;73.92;100785.59;6315567;22;45326;-95
2021/07/04 03:22:43;;;;;;;;;6.25;6.25;;;;;19.01;73.54;100783.75;6315860;22;45581;-95
2021/07/04 03:25:10;;;;;;;;;7.00;7.00;;;;;18.95;73.99;100775.34;6315967;22;47308;-95
2021/07/04 03:27:39;;;;;;;;;5.75;5.00;;;;;19.10;73.71;100794.72;6343010;22;44818;-96
2021/07/04 03:30:08;;;;;;;;;5.50;5.50;;;;;18.88;73.62;100765.03;6316235;22;45386;-95
2021/07/04 03:32:34;;;;;;;;;5.50;4.25;;;;;19.28;74.16;100832.81;6316559;22;45184;-95
2021/07/04 03:35:02;;;;;;;;;7.00;5.25;;;;;19.26;73.90;100832.09;6314985;22;47413;-95
2021/07/04 03:37:34;;;;;;;;;7.75;5.00;;;;;18.88;73.80;100765.03;6317097;22;45519;-94
2021/07/04 03:40:00;;;;;;;;;4.75;4.75;;;;;18.85;74.14;100765.34;6317444;22;45169;-95
2021/07/04 03:42:25;;;;;;;;;6.50;4.00;;;;;18.95;74.58;100767.19;6318042;22;45208;-94
2021/07/04 03:44:55;;;;;;;;;6.50;5.50;;;;;19.54;75.16;100860.97;6320121;22;45570;-95
2021/07/04 03:47:33;;;;;;;;;8.50;6.00;;;;;19.34;75.21;100808.53;6319684;22;45295;-95
2021/07/04 03:50:09;;;;;;;;;9.00;4.25;;;;;18.97;75.75;100752.41;6319865;22;45227;-95
2021/07/04 03:52:48;;;;;;;;;;;;;;;;;;;;;
2021/07/04 03:56:03;;;;;;;;;5.75;4.75;;;;;18.95;76.30;100751.72;6319679;22;75368;-96
2021/07/04 03:59:04;;;;;;;;;;;;;;;;;;;;;
2021/07/04 04:02:08;;;;;;;;;8.00;5.25;;;;;18.91;76.29;100752.97;6319837;22;69677;-95
2021/07/04 04:05:17;;;;;;;;;6.00;5.25;;;;;19.09;76.77;100788.41;6314961;22;45182;-96
2021/07/04 04:08:05;;;;;;;;;5.00;5.00;;;;;18.90;76.66;100762.16;6319902;22;46895;-96
2021/07/04 04:10:59;;;;;;;;;3.50;3.50;;;;;18.98;76.74;100773.16;6324416;22;44872;-95
2021/07/04 04:13:37;;;;;;;;;;;;;;;;;;;;;
2021/07/04 04:16:06;;;;;;;;;4.00;4.00;;;;;19.24;77.49;100856.78;6319891;22;69299;-96
2021/07/04 04:18:37;;;;;;;;;4.75;4.00;;;;;18.72;77.68;100773.88;6319908;22;47182;-95
2021/07/04 04:21:12;;;;;;;;;3.25;2.50;;;;;18.71;77.01;100782.19;6318692;22;45227;-95
2021/07/04 04:23:41;;;;;;;;;3.00;3.00;;;;;18.63;77.48;100794.69;6346521;22;45179;-94
2021/07/04 04:26:07;;;;;;;;;2.25;2.25;;;;;18.67;77.79;100806.13;6321548;22;44720;-94
2021/07/04 04:28:43;;;;;;;;;;;;;;;;;;;;;
2021/07/04 04:31:11;;;;;;;;;4.00;4.00;;;;;18.69;78.02;100808.66;6333380;22;72171;-95
2021/07/04 04:33:39;;;;;;;;;3.00;3.00;;;;;18.61;78.26;100791.25;6323424;22;45372;-94
2021/07/04 04:36:05;;;;;;;;;2.00;2.00;;;;;18.95;78.01;100833.31;6318680;22;44764;-95
2021/07/04 04:38:31;;;;;;;;;3.00;3.00;;;;;19.27;78.62;100885.53;6344983;22;48024;-94
2021/07/04 04:40:56;;;;;;;;;1.00;1.00;;;;;19.15;78.32;100852.25;6318914;22;45161;-95
2021/07/04 04:43:28;;;;;;;;;1.50;1.50;;;;;18.67;78.55;100780.78;6344984;22;45185;-95
2021/07/04 04:46:01;;;;;;;;;5.00;4.00;;;;;18.69;78.29;100776.03;6344182;22;45518;-94
2021/07/04 04:48:27;;;;;;;;;3.25;3.00;;;;;18.98;78.27;100799.50;6344243;22;46932;-94
2021/07/04 04:50:53;;;;;;;;;3.75;3.75;;;;;18.69;78.47;100746.13;6317466;22;45305;-95
2021/07/04 04:53:18;;;;;;;;;3.50;3.00;;;;;18.71;78.51;100738.66;6315882;22;46025;-95
2021/07/04 04:55:44;;;;;;;;;3.50;2.75;;;;;18.74;78.74;100738.38;6342831;22;45206;-94
2021/07/04 04:58:10;;;;;;;;;4.00;2.00;;;;;19.10;78.66;100789.25;6316335;22;47163;-94
2021/07/04 05:00:38;;;;;;;;;3.75;3.75;;;;;18.95;78.23;100773.47;6316813;22;44596;-95
2021/07/04 05:03:06;;;;;;;;;4.00;3.00;;;;;19.12;78.28;100793.53;6344070;22;45389;-95
2021/07/04 05:05:33;;;;;;;;;3.00;3.00;;;;;18.98;78.46;100775.03;6316405;22;45184;-96
2021/07/04 05:08:02;;;;;;;;;4.25;3.00;;;;;19.11;78.77;100801.88;6310651;22;47469;-95
2021/07/04 05:10:41;;;;;;;;;2.00;2.00;;;;;19.20;78.15;100814.53;6314714;22;45313;-95
2021/07/04 05:13:45;;;;;;;;;;;;;;;;;;;;;
2021/07/04 05:17:02;;;;;;;;;;;;;;;;;;;;;
2021/07/04 05:23:21;;;;;;;;;;;;;;;;;;;;;
2021/07/04 05:25:49;;;;;;;;;2.50;2.50;;;;;19.21;78.56;100847.06;6224594;22;68140;-95
2021/07/04 05:28:48;;;;;;;;;;;;;;;;;;;;;
2021/07/04 05:31:21;;;;;;;;;2.00;2.00;;;;;19.16;78.48;100857.53;6225755;22;75260;-95
2021/07/04 05:33:56;;;;;;;;;3.25;3.25;;;;;18.91;78.54;100811.00;6200302;22;45170;-95
2021/07/04 05:36:56;;;;;;;;;3.25;3.25;;;;;18.70;78.60;100773.19;6203992;22;45142;-96
2021/07/04 05:39:41;;;;;;;;;;;;;;;;;;;;;
2021/07/04 05:43:08;;;;;;;;;3.25;3.25;;;;;18.85;78.62;100818.91;6225919;22;74544;-95
2021/07/04 05:46:18;;;;;;;;;;;;;;;;;;;;;
2021/07/04 05:49:17;;;;;;;;;;;;;;;;;;;;;
2021/07/04 05:55:22;;;;;;;;;;;;;;;;;;;;;
2021/07/04 05:58:03;;;;;;;;;;;;;;;;;;;;;
2021/07/04 06:01:08;;;;;;;;;;;;;;;;;;;;;
2021/07/04 06:04:09;;;;;;;;;4.00;4.00;;;;;19.15;79.20;100855.81;6214101;22;70484;-95
2021/07/04 06:06:55;;;;;;;;;4.75;3.50;;;;;18.60;78.97;100756.91;6177238;22;45850;-95
2021/07/04 06:10:36;;;;;;;;;;;;;;;;;;;;;
2021/07/04 06:13:06;;;;;;;;;5.00;4.50;;;;;19.11;79.50;100834.53;6197815;22;44801;-96
2021/07/04 06:27:23;;;;;;;;;3.25;3.25;;;;;18.58;79.23;100750.78;6018486;23;45404;-95
2021/07/04 06:33:11;;;;;;;;;4.75;4.75;;;;;19.19;79.01;100859.97;6019561;23;45360;-95
2021/07/04 06:36:08;;;;;;;;;3.00;3.00;;;;;19.19;79.28;100854.50;6019012;23;45405;-96
2021/07/04 06:42:16;;;;;;;;;;;;;;;;;;;;;
2021/07/04 06:49:24;;;;;;;;;4.00;3.00;;;;;19.29;78.66;100853.59;5963800;23;45366;-95
2021/07/04 06:59:46;;;;;;;;;4.50;3.25;;;;;18.71;78.45;100761.28;6047365;23;45505;-95
2021/07/04 07:02:54;;;;;;;;;3.00;3.00;;;;;18.69;78.68;100755.16;6086455;22;45409;-95
2021/07/04 07:05:22;;;;;;;;;4.00;4.00;;;;;18.79;78.86;100771.41;6231197;22;44597;-95
2021/07/04 07:07:54;;;;;;;;;5.25;3.50;;;;;18.72;79.12;100765.72;6228189;22;45518;-95
2021/07/04 07:10:35;;;;;;;;;;;;;;;;;;;;;
2021/07/04 07:13:35;;;;;;;;;3.00;3.00;;;;;19.17;79.19;100823.88;6254826;22;73317;-95
2021/07/04 07:16:47;;;;;;;;;;;;;;;;;;;;;
2021/07/04 09:51:16;;;;;;;;;;;;;;;;;;;;;
2021/07/04 09:57:52;;;;;;;;;;;;;;;;;;;;;
2021/07/04 10:15:04;;;;;;;;;;;;;;;;;;;;;
2021/07/04 10:36:25;;;;;;;;;;;;;;;;;;;;;
2021/07/04 10:44:00;;;;;;;;;1.00;1.00;;;;;21.80;65.53;100794.50;5933747;24;45303;-96
2021/07/04 10:50:30;;;;;;;;;1.00;1.00;;;;;22.09;65.34;100780.25;5851438;24;45393;-96
2021/07/04 11:05:09;;;;;;;;;;;;;;;;;;;;;
2021/07/04 11:08:01;;;;;;;;;2.00;1.00;;;;;21.63;63.87;100774.50;5797218;24;45500;-96
2021/07/04 11:14:50;;;;;;;;;;;;;;;;;;;;;
2021/07/04 11:17:58;;;;;;;;;0.00;0.00;;;;;20.72;65.62;100684.31;5878470;24;69341;-96
2021/07/04 11:21:29;;;;;;;;;;;;;;;;;;;;;
2021/07/04 11:29:07;;;;;;;;;;;;;;;;;;;;;
2021/07/04 11:49:20;;;;;;;;;4.25;1.75;;;;;21.95;64.83;100738.09;6324008;21;1554230;-96
2021/07/04 11:51:51;;;;;;;;;1.25;1.25;;;;;21.47;64.43;100655.16;6354224;22;45477;-95
2021/07/04 11:55:32;;;;;;;;;;;;;;;;;;;;;
2021/07/04 12:01:23;;;;;;;;;;;;;;;;;;;;;
2021/07/04 12:04:09;;;;;;;;;;;;;;;;;;;;;
2021/07/04 12:07:22;;;;;;;;;1.25;1.25;;;;;22.13;61.32;100674.09;6234645;22;68894;-94
2021/07/04 12:10:15;;;;;;;;;2.75;1.25;;;;;21.82;60.12;100632.03;6154752;23;46172;-96
2021/07/04 12:13:13;;;;;;;;;1.00;1.00;;;;;21.96;60.88;100662.38;6126006;23;47022;-94
2021/07/04 12:18:37;;;;;;;;;2.25;2.25;;;;;21.92;61.73;100677.44;6123710;23;45446;-95
2021/07/04 12:21:38;;;;;;;;;;;;;;;;;;;;;
2021/07/04 12:24:04;;;;;;;;;0.00;0.00;;;;;21.48;61.06;100626.81;6133232;23;74774;-94
2021/07/04 12:26:40;;;;;;;;;;;;;;;;;;;;;
2021/07/04 12:29:09;;;;;;;;;0.25;0.25;;;;;21.54;60.40;100690.81;6256601;22;67757;-95
2021/07/04 12:31:44;;;;;;;;;;;;;;;;;;;;;
2021/07/04 12:34:14;;;;;;;;;0.50;0.50;;;;;21.09;61.55;100643.94;6254310;22;75343;-96
2021/07/04 12:36:39;;;;;;;;;0.25;0.00;;;;;21.30;62.04;100687.94;6231445;22;45321;-95
2021/07/04 12:39:09;;;;;;;;;0.00;0.00;;;;;20.83;62.94;100628.59;6214519;22;45415;-94
2021/07/04 12:41:44;;;;;;;;;2.00;0.00;;;;;20.72;63.40;100616.97;6199305;22;44773;-96
2021/07/04 12:44:16;;;;;;;;;1.50;1.00;;;;;21.04;63.96;100683.53;6294980;22;46189;-95
2021/07/04 12:46:47;;;;;;;;;0.00;0.00;;;;;20.60;64.01;100624.59;6324061;22;45451;-96
2021/07/04 12:49:16;;;;;;;;;2.25;1.00;;;;;21.08;64.60;100703.13;6344968;22;45175;-95
2021/07/04 12:51:52;;;;;;;;;0.50;0.50;;;;;20.78;65.07;100639.16;6346347;22;45336;-96
2021/07/04 12:54:34;;;;;;;;;2.75;1.50;;;;;20.67;65.06;100605.72;6346129;22;47012;-95
2021/07/04 12:57:10;;;;;;;;;;;;;;;;;;;;;
2021/07/04 13:00:15;;;;;;;;;;;;;;;;;;;;;
2021/07/04 13:02:52;;;;;;;;;1.00;1.00;;;;;20.86;64.54;100631.84;6338105;22;70081;-95
2021/07/04 13:05:39;;;;;;;;;2.75;2.00;;;;;21.04;64.10;100648.03;6347365;22;46955;-95
2021/07/04 13:08:13;;;;;;;;;0.25;0.25;;;;;20.89;64.76;100611.53;6348003;22;45187;-95
2021/07/04 13:11:13;;;;;;;;;;;;;;;;;;;;;
2021/07/04 13:16:31;;;;;;;;;2.00;2.00;;;;;21.57;63.47;100658.53;6350466;22;45430;-95
2021/07/04 13:19:16;;;;;;;;;1.00;1.00;;;;;21.24;64.04;100578.56;6346904;22;45511;-95
2021/07/04 13:21:42;;;;;;;;;0.75;0.50;;;;;21.39;65.13;100584.19;6343674;22;44806;-95
2021/07/04 13:24:17;;;;;;;;;0.25;0.25;;;;;21.88;63.38;100648.75;6345508;22;45415;-96
2021/07/04 13:27:01;;;;;;;;;1.00;1.00;;;;;21.53;63.83;100583.47;6348949;22;46512;-95
2021/07/04 13:29:31;;;;;;;;;0.25;0.25;;;;;21.75;62.73;100609.16;6347245;22;44847;-94
2021/07/04 13:32:42;;;;;;;;;0.00;0.00;;;;;21.62;62.30;100579.69;6348566;22;45346;-96
2021/07/04 13:35:35;;;;;;;;;;;;;;;;;;;;;
2021/07/04 13:38:22;;;;;;;;;1.00;0.00;;;;;21.87;63.05;100584.19;6348715;22;74124;-94
2021/07/04 13:41:05;;;;;;;;;2.25;1.00;;;;;22.43;61.94;100668.84;6352040;22;45199;-95
2021/07/04 13:43:37;;;;;;;;;1.75;1.25;;;;;22.08;62.08;100595.34;6353692;22;44583;-95
2021/07/04 13:46:16;;;;;;;;;0.50;0.50;;;;;22.55;61.11;100661.09;6363348;22;45218;-95
2021/07/04 13:48:59;;;;;;;;;1.25;0.25;;;;;22.03;61.74;100575.06;6366821;22;46728;-95
2021/07/04 13:51:59;;;;;;;;;0.75;0.75;;;;;22.14;60.79;100607.44;6363585;22;45414;-95
2021/07/04 13:54:38;;;;;;;;;1.00;1.00;;;;;22.05;60.91;100573.84;6354510;22;44726;-95
2021/07/04 13:57:07;;;;;;;;;0.50;0.50;;;;;22.08;61.28;100575.38;6353777;22;45154;-95
2021/07/04 13:59:43;;;;;;;;;1.75;0.75;;;;;22.14;60.73;100563.69;6353062;22;45575;-95
2021/07/04 14:02:08;;;;;;;;;0.75;0.75;;;;;22.23;59.82;100564.50;6353139;22;45009;-94
2021/07/04 14:04:50;;;;;;;;;1.00;1.00;;;;;22.18;60.20;100562.31;6351987;22;45308;-95
2021/07/04 14:07:39;;;;;;;;;1.75;1.75;;;;;22.33;60.15;100581.50;6350883;22;44870;-96
2021/07/04 14:13:21;;;;;;;;;1.00;1.00;;;;;22.37;59.50;100643.03;6288347;22;44704;-95
2021/07/04 14:22:45;;;;;;;;;;;;;;;;;;;;;
2021/07/04 14:25:48;;;;;;;;;2.00;0.75;;;;;21.17;71.34;100684.88;6048823;23;72139;-96
2021/07/04 14:28:19;;;;;;;;;1.00;1.00;;;;;20.81;72.87;100647.03;6023902;23;45421;-96
2021/07/04 14:31:02;;;;;;;;;1.25;1.25;;;;;20.33;73.13;100605.81;6049317;23;44842;-96
2021/07/04 14:33:38;;;;;;;;;1.00;1.00;;;;;20.60;73.90;100651.88;6025827;23;46413;-96
2021/07/04 14:36:37;;;;;;;;;;;;;;;;;;;;;
2021/07/04 14:39:43;;;;;;;;;1.00;0.50;;;;;20.84;75.62;100682.13;6044483;23;70702;-96
2021/07/04 14:42:55;;;;;;;;;;;;;;;;;;;;;
2021/07/04 14:45:44;;;;;;;;;1.50;1.50;;;;;20.88;76.05;100664.41;6047014;23;74155;-96
2021/07/04 14:48:48;;;;;;;;;;;;;;;;;;;;;
2021/07/04 14:55:29;;;;;;;;;2.00;1.00;;;;;20.29;76.31;100616.22;6106018;23;45171;-95
2021/07/04 14:58:12;;;;;;;;;;;;;;;;;;;;;
2021/07/04 15:00:48;;;;;;;;;;;;;;;;;;;;;
2021/07/04 15:03:43;;;;;;;;;1.00;1.00;;;;;20.54;76.80;100668.06;6076385;23;68153;-95
2021/07/04 15:06:32;;;;;;;;;0.50;0.50;;;;;20.17;77.44;100587.56;6073984;23;45592;-96
2021/07/04 15:09:05;;;;;;;;;1.00;1.00;;;;;20.15;77.42;100583.13;6052004;23;45433;-95
2021/07/04 15:15:59;;;;;;;;;;;;;;;;;;;;;
2021/07/04 15:22:05;;;;;;;;;1.00;1.00;;;;;19.98;75.89;100574.06;6019346;23;46389;-95
2021/07/04 15:25:32;;;;;;;;;;;;;;;;;;;;;
2021/07/04 15:50:46;;;;;;;;;;;;;;;;;;;;;
2021/07/04 17:02:03;;;;;;;;;0.75;0.75;;;;;20.74;75.59;100660.47;6318497;22;45157;-95
2021/07/04 17:04:49;;;;;;;;;1.50;1.50;;;;;20.56;75.59;100641.47;6315754;22;45508;-95
2021/07/04 17:10:59;;;;;;;;;1.00;1.00;;;;;20.01;76.89;100593.84;6177367;23;45989;-96
2021/07/04 17:13:28;;;;;;;;;1.25;1.25;;;;;19.89;77.57;100587.81;6184207;22;45381;-94
2021/07/04 17:15:56;;;;;;;;;2.00;1.00;;;;;19.81;77.67;100578.59;6316497;22;45471;-94
2021/07/04 17:21:34;;;;;;;;;3.00;2.00;;;;;19.69;78.51;100572.56;6296196;22;45346;-96
2021/07/04 17:24:03;;;;;;;;;2.00;1.00;;;;;20.25;78.84;100663.91;6318010;22;45336;-96
2021/07/04 17:26:31;;;;;;;;;1.00;1.00;;;;;19.72;78.37;100601.34;6314417;22;45598;-95
2021/07/04 17:28:57;;;;;;;;;1.00;1.00;;;;;19.62;77.38;100600.63;6315921;22;47821;-96
2021/07/04 17:31:28;;;;;;;;;0.00;0.00;;;;;19.59;76.49;100615.44;6315338;22;45351;-96
2021/07/04 17:33:58;;;;;;;;;1.00;0.00;;;;;19.95;75.59;100701.63;6316198;22;45335;-95
2021/07/04 17:36:34;;;;;;;;;2.00;2.00;;;;;19.39;75.88;100629.25;6316005;22;45517;-95
2021/07/04 17:39:07;;;;;;;;;1.00;1.00;;;;;19.63;75.71;100684.88;6314801;22;45707;-96
2021/07/04 17:42:24;;;;;;;;;;;;;;;;;;;;;
2021/07/04 17:45:23;;;;;;;;;0.00;0.00;;;;;19.11;76.12;100633.97;6300031;22;44813;-95
2021/07/04 17:59:50;;;;;;;;;;;;;;;;;;;;;
2021/07/04 18:06:42;;;;;;;;;;;;;;;;;;;;;
2021/07/04 18:09:31;;;;;;;;;;;;;;;;;;;;;
2021/07/04 18:16:27;;;;;;;;;;;;;;;;;;;;;
2021/07/04 18:19:31;;;;;;;;;0.25;0.25;;;;;19.33;75.73;100737.94;5797935;24;76264;-95
2021/07/04 18:22:08;;;;;;;;;2.00;1.00;;;;;18.94;76.45;100687.41;5777272;24;45419;-95
2021/07/04 18:25:40;;;;;;;;;;;;;;;;;;;;;
2021/07/04 18:32:02;;;;;;;;;;;;;;;;;;;;;
2021/07/04 18:47:19;;;;;;;;;;;;;;;;;;;;;
2021/07/04 18:50:04;;;;;;;;;3.00;3.00;;;;;19.02;74.45;100749.22;6345795;22;67868;-94
2021/07/04 18:57:10;;;;;;;;;;;;;;;;;;;;;
2021/07/04 18:59:47;;;;;;;;;4.00;4.00;;;;;18.77;75.25;100708.16;6315339;22;72182;-96
2021/07/04 19:02:29;;;;;;;;;6.50;5.25;;;;;18.90;75.46;100741.25;6283617;22;44697;-96
2021/07/04 19:12:13;;;;;;;;;4.50;4.50;;;;;19.28;74.66;100759.31;6012848;23;45279;-96
2021/07/04 19:14:41;;;;;;;;;5.00;5.00;;;;;18.95;73.72;100726.38;6008089;23;45288;-96
2021/07/04 19:17:07;;;;;;;;;3.50;3.50;;;;;18.97;74.81;100724.34;6006048;23;45612;-94
2021/07/04 19:19:33;;;;;;;;;5.00;5.00;;;;;18.91;75.38;100717.63;6005931;23;47476;-94
2021/07/04 19:21:59;;;;;;;;;5.25;3.25;;;;;18.86;75.50;100706.38;6006423;23;44914;-96
2021/07/04 19:24:25;;;;;;;;;6.00;4.75;;;;;19.30;76.27;100785.38;6006278;23;45449;-95
2021/07/04 19:26:51;;;;;;;;;5.25;5.25;;;;;18.92;75.55;100731.09;6006383;23;45406;-94
2021/07/04 19:29:16;;;;;;;;;5.75;5.75;;;;;18.87;76.63;100724.41;6006346;23;47747;-94
2021/07/04 19:31:43;;;;;;;;;4.00;4.00;;;;;19.07;76.31;100758.63;6006151;23;45408;-96
2021/07/04 19:34:11;;;;;;;;;4.50;4.50;;;;;18.92;76.49;100744.69;6006527;23;45444;-95
2021/07/04 19:36:37;;;;;;;;;5.00;5.00;;;;;19.23;76.57;100811.50;5983008;23;45168;-96
2021/07/04 19:39:06;;;;;;;;;10.00;6.00;;;;;19.17;76.55;100795.81;5957119;23;46888;-96
2021/07/04 19:41:32;;;;;;;;;5.25;5.25;;;;;18.95;75.94;100778.06;5949376;23;45384;-94
2021/07/04 19:43:58;;;;;;;;;6.00;5.00;;;;;19.23;75.58;100819.66;5951752;23;45374;-94
2021/07/04 19:46:23;;;;;;;;;6.00;5.00;;;;;19.05;76.34;100795.19;6123329;23;45409;-96
2021/07/04 19:48:51;;;;;;;;;3.00;3.00;;;;;19.06;76.78;100799.59;6221621;22;46572;-94
2021/07/04 19:51:19;;;;;;;;;5.75;5.75;;;;;18.77;76.45;100754.38;6369288;22;45197;-94
2021/07/04 19:53:48;;;;;;;;;5.75;4.00;;;;;18.86;76.84;100766.22;6343130;22;45349;-95
2021/07/04 19:56:13;;;;;;;;;5.00;5.00;;;;;18.82;76.74;100771.06;6343530;22;45361;-95
2021/07/04 19:58:39;;;;;;;;;8.00;5.25;;;;;18.80;76.93;100773.13;6345164;22;47511;-94
2021/07/04 20:01:04;;;;;;;;;4.00;4.00;;;;;18.73;77.11;100772.00;6347045;22;45309;-93
2021/07/04 20:06:17;;;;;;;;;4.00;2.25;;;;;18.83;77.03;100789.13;6374777;22;45376;-95
2021/07/04 20:08:43;;;;;;;;;5.25;5.25;;;;;18.82;76.73;100798.28;6346326;22;47148;-96
2021/07/04 20:11:12;;;;;;;;;6.00;5.00;;;;;19.33;77.48;100891.22;6345967;22;45334;-93
2021/07/04 20:13:37;;;;;;;;;5.25;5.25;;;;;19.13;77.31;100852.41;6345744;22;45790;-92
2021/07/04 20:16:13;;;;;;;;;7.25;5.25;;;;;18.77;77.50;100790.59;6347938;22;45424;-93
2021/07/04 20:18:38;;;;;;;;;4.00;4.00;;;;;19.00;77.45;100817.41;6347737;22;46969;-95
2021/07/04 20:21:06;;;;;;;;;6.00;5.25;;;;;19.31;77.31;100889.69;6347438;22;45460;-94
2021/07/04 20:23:32;;;;;;;;;7.00;6.50;;;;;19.28;77.54;100877.25;6347640;22;45412;-95
2021/07/04 20:26:01;;;;;;;;;5.00;5.00;;;;;18.70;77.62;100794.94;6345571;22;45275;-95
2021/07/04 20:28:26;;;;;;;;;7.00;6.25;;;;;19.02;77.50;100853.50;6345138;22;47009;-94
2021/07/04 20:30:53;;;;;;;;;5.50;5.50;;;;;19.10;77.88;100860.84;6345327;22;45474;-93
2021/07/04 20:33:19;;;;;;;;;6.00;6.00;;;;;19.11;78.20;100862.56;6347662;22;44848;-93
2021/07/04 20:35:57;;;;;;;;;8.50;6.50;;;;;18.72;77.81;100808.38;6348591;22;45282;-94
2021/07/04 20:38:30;;;;;;;;;6.00;6.00;;;;;18.90;77.96;100833.75;6328888;22;46772;-94
2021/07/04 20:42:20;;;;;;;;;;;;;;;;;;;;;
2021/07/04 20:45:14;;;;;;;;;;;;;;;;;;;;;
2021/07/04 20:48:17;;;;;;;;;;;;;;;;;;;;;
2021/07/04 20:50:40;;;;;;;;;7.75;7.75;;;;;18.80;77.17;100822.09;6335673;22;45230;-95
2021/07/04 20:53:40;;;;;;;;;;;;;;;;;;;;;
2021/07/04 20:56:43;;;;;;;;;;;;;;;;;;;;;
2021/07/04 20:59:43;;;;;;;;;8.50;8.00;;;;;18.89;77.85;100821.16;6364388;22;70480;-92
2021/07/04 21:02:27;;;;;;;;;;;;;;;;;;;;;
2021/07/04 21:04:59;;;;;;;;;9.00;8.00;;;;;18.67;76.93;100791.66;6347468;22;72186;-94
2021/07/04 21:07:32;;;;;;;;;7.00;7.00;;;;;18.72;76.99;100794.78;6344642;22;45198;-92